Terminal Aerodrome Forecast
Issued by NWS Sioux Falls, SD

Home | Current Version | Previous Version | Text Only | Print | Product List | Glossary On
Versions: 1 2 3 4 5 6 7 8 9 10 11 12 13 14 15
000
FTUS43 KFSD 170500
TAFHON
TAF
KHON 170523Z 1706/1806 36007KT P6SM SCT200
     FM171200 02006KT P6SM SCT250
     FM171800 10007KT P6SM SCT200
     FM172100 15008KT P6SM BKN120
     FM180200 11014KT P6SM OVC080=

USA.gov is the U.S. government's official web portal to all federal, state and local government web resources and services.